Impacts TAF Board INFO
FOR SITUATIONAL AWARENESS. NOT TO BE USED FOR FLIGHT PLANNING PURPOSES.
IDs:

KDTW - Detroit Metro/Wayne, MI, US

Issued at 1120 UTC 21 May 2018
Updated at 1310 UTC 21 May 2018
Potential Impact None Slight Moderate High
Time1253Z 21/14Z 21/15Z 21/16Z 21/17Z 21/18Z 21/19Z 21/20Z 21/21Z 21/22Z 21/23Z 22/00Z 22/01Z 22/02Z>>
Type OBS PRVL PRVL PRVL PRVL PRVL PRVL PRVL PRVL PRVL PRVL PRVL PRVL PRVL
VIS 10 >6 >6 >6 >6 >6 >6 >6 4 4 4 3 3 3
CIG 220 150 150 150 150 150 60 60 40 40 40 25 25 25
Cover BKN OVC OVC OVC OVC OVC OVC OVC OVC OVC OVC OVC OVC OVC
FltCat VFR VFR VFR VFR VFR VFR VFR VFR MVFR MVFR MVFR MVFR MVFR MVFR
WX -- -- -- -- -- -- -RA -RA RA BR RA BR RA BR SHRA BR SHRA BR SHRA BR
WDir 70 90 90 90 90 90 70 70 60 60 60 80 80 80
WSpd 10 7 7 7 7 7 8 8 10 10 10 8 8 8
WGst -- -- -- -- -- -- -- -- -- -- -- -- -- --

Raw TAF
KDTW 211120Z 2112/2218 03006KT P6SM BKN250
  FM211400 09007KT P6SM SCT080 OVC150
  FM211900 07008KT P6SM -RA SCT040 OVC060
  FM212100 06010KT 4SM RA BR SCT028 OVC040
  FM220000 08008KT 3SM SHRA BR SCT018 OVC025
  TEMPO 2203/2207 2SM TSRA BR SCT012 OVC018CB
  FM220700 VRB04KT 3SM -SHRA BR BKN008 OVC015
  FM221400 22005KT 6SM BR OVC022


Raw METAR
KDTW 211253Z 07010KT 10SM SCT140 BKN220 14/04 A3025 RMK AO2 SLP243 T01440044
KDTW 211153Z 11003KT 10SM SCT140 OVC220 12/06 A3025 RMK AO2 SLP245 T01220056 10128 20100 53016
KDTW 211053Z 06005KT 10SM SCT140 OVC220 11/06 A3023 RMK AO2 SLP237 T01060056

METAR Board
Radar Display
Forecast Discussion

FOR SITUATIONAL AWARENESS. NOT TO BE USED FOR FLIGHT PLANNING PURPOSES.